createdAt,value
2018-09-27T00:00:28.036Z,2.60
2018-09-27T00:03:02.630Z,3.10
2018-09-27T00:05:37.361Z,3.03
2018-09-27T00:08:11.912Z,2.73
2018-09-27T00:10:46.436Z,3.13
2018-09-27T00:13:20.988Z,2.80
2018-09-27T00:15:55.664Z,2.17
2018-09-27T00:18:30.161Z,2.73
2018-09-27T00:21:04.961Z,2.37
2018-09-27T00:23:39.455Z,2.77
2018-09-27T00:26:14.068Z,2.40
2018-09-27T00:28:48.774Z,2.80
2018-09-27T00:31:23.409Z,3.20
2018-09-27T00:33:57.990Z,3.43
2018-09-27T00:36:32.592Z,3.27
2018-09-27T00:39:09.508Z,2.47
2018-09-27T00:41:44.021Z,2.87
2018-09-27T00:44:18.689Z,2.67
2018-09-27T00:46:53.288Z,2.30
2018-09-27T00:49:27.790Z,2.60
2018-09-27T00:52:02.472Z,2.93
2018-09-27T00:54:40.364Z,2.80
2018-09-27T00:57:24.562Z,2.90
2018-09-27T01:00:06.929Z,2.73
2018-09-27T01:02:41.440Z,2.90
2018-09-27T01:05:16.040Z,2.93
2018-09-27T01:07:50.677Z,2.47
2018-09-27T01:10:25.146Z,2.47
2018-09-27T01:15:58.506Z,2.70
2018-09-27T01:18:33.296Z,2.43
2018-09-27T01:21:07.745Z,2.50
2018-09-27T01:23:42.349Z,3.17
2018-09-27T01:26:16.975Z,2.30
2018-09-27T01:28:51.917Z,2.17
2018-09-27T01:31:26.315Z,2.63
2018-09-27T01:34:00.952Z,2.77
2018-09-27T01:36:35.606Z,2.57
2018-09-27T01:39:10.643Z,2.50
2018-09-27T01:41:45.277Z,2.10
2018-09-27T01:44:19.821Z,2.43
2018-09-27T01:46:54.428Z,2.50
2018-09-27T01:49:28.833Z,2.63
2018-09-27T01:52:03.557Z,2.43
2018-09-27T01:54:38.298Z,2.73
2018-09-27T01:57:12.725Z,2.27
2018-09-27T01:59:47.424Z,2.40
2018-09-27T02:02:22.445Z,2.63
2018-09-27T02:04:57.016Z,3.43
2018-09-27T02:07:31.618Z,2.67
2018-09-27T02:10:06.233Z,2.60
2018-09-27T02:12:40.827Z,2.40
2018-09-27T02:15:15.597Z,2.20
2018-09-27T02:17:50.209Z,2.50
2018-09-27T02:20:24.795Z,2.50
2018-09-27T02:22:59.280Z,2.30
2018-09-27T02:25:33.813Z,2.10
2018-09-27T02:28:08.249Z,1.93
2018-09-27T02:30:42.689Z,3.20
2018-09-27T02:33:17.349Z,2.27
2018-09-27T02:35:51.808Z,2.10
2018-09-27T02:38:26.512Z,2.30
2018-09-27T02:41:01.053Z,2.40
2018-09-27T02:43:35.688Z,2.00
2018-09-27T02:46:10.254Z,2.10
2018-09-27T02:48:45.205Z,2.30
2018-09-27T02:51:20.082Z,2.00
2018-09-27T02:53:54.590Z,2.77
2018-09-27T02:56:29.200Z,2.20
2018-09-27T02:59:03.688Z,1.90
2018-09-27T03:01:38.138Z,1.97
2018-09-27T03:04:12.717Z,2.30
2018-09-27T03:06:47.218Z,2.43
2018-09-27T03:09:21.829Z,2.87
2018-09-27T03:11:56.365Z,2.37
2018-09-27T03:14:31.018Z,2.10
2018-09-27T03:17:05.781Z,2.13
2018-09-27T03:19:40.764Z,1.93
2018-09-27T03:22:15.331Z,2.37
2018-09-27T03:24:50.213Z,2.00
2018-09-27T03:27:24.854Z,2.17
2018-09-27T03:29:59.421Z,3.37
2018-09-27T03:35:13.850Z,2.40
2018-09-27T03:37:48.344Z,1.83
2018-09-27T03:40:23.342Z,2.13
2018-09-27T03:42:57.970Z,1.90
2018-09-27T03:45:32.556Z,2.30
2018-09-27T03:48:07.057Z,2.00
2018-09-27T03:50:41.534Z,2.93
2018-09-27T03:53:16.145Z,2.00
2018-09-27T03:55:50.554Z,2.00
2018-09-27T03:58:25.093Z,2.53
2018-09-27T04:00:59.555Z,1.90
2018-09-27T04:03:34.154Z,2.10
2018-09-27T04:06:08.665Z,2.60
2018-09-27T04:08:43.236Z,2.47
2018-09-27T04:11:17.712Z,2.07
2018-09-27T04:13:52.579Z,2.20
2018-09-27T04:16:27.173Z,2.50
2018-09-27T04:19:01.639Z,2.33
2018-09-27T04:21:36.252Z,2.10
2018-09-27T04:24:10.851Z,2.07
2018-09-27T04:26:48.966Z,2.30
2018-09-27T04:29:36.980Z,2.50
2018-09-27T04:32:11.418Z,2.30
2018-09-27T04:34:46.237Z,2.10
2018-09-27T04:37:20.737Z,2.73
2018-09-27T04:39:55.351Z,2.23
2018-09-27T04:42:30.036Z,2.50
2018-09-27T04:45:04.780Z,2.00
2018-09-27T04:47:39.526Z,2.47
2018-09-27T04:50:14.256Z,2.83
2018-09-27T04:52:48.870Z,2.30
2018-09-27T04:55:23.384Z,2.53
2018-09-27T04:57:57.982Z,2.47
2018-09-27T05:00:32.528Z,1.97
2018-09-27T05:03:07.123Z,2.37
2018-09-27T05:05:41.720Z,2.00
2018-09-27T05:08:16.710Z,2.23
2018-09-27T05:10:51.417Z,2.30
2018-09-27T05:13:26.119Z,2.30
2018-09-27T05:16:00.807Z,2.03
2018-09-27T05:18:35.441Z,2.23
2018-09-27T05:21:10.333Z,2.20
2018-09-27T05:23:45.168Z,2.47
2018-09-27T05:26:20.074Z,2.30
2018-09-27T05:28:54.608Z,3.30
2018-09-27T05:31:29.147Z,3.80
2018-09-27T05:34:03.772Z,3.53
2018-09-27T05:36:38.336Z,2.50
2018-09-27T05:39:13.136Z,2.70
2018-09-27T05:41:47.805Z,2.70
2018-09-27T05:44:22.787Z,2.50
2018-09-27T05:46:57.405Z,3.27
2018-09-27T05:49:31.904Z,2.40
2018-09-27T05:52:07.082Z,2.30
2018-09-27T05:54:41.671Z,2.70
2018-09-27T05:57:16.408Z,2.93
2018-09-27T05:59:51.245Z,2.50
2018-09-27T06:02:25.996Z,2.53
2018-09-27T06:05:00.560Z,2.50
2018-09-27T06:07:35.111Z,2.70
2018-09-27T06:10:09.677Z,2.47
2018-09-27T06:12:44.244Z,2.40
2018-09-27T06:15:18.948Z,2.40
2018-09-27T06:17:53.565Z,2.40
2018-09-27T06:20:28.211Z,2.77
2018-09-27T06:23:03.201Z,3.20
2018-09-27T06:25:37.913Z,2.20
2018-09-27T06:28:12.542Z,2.47
2018-09-27T06:30:47.331Z,2.87
2018-09-27T06:33:21.853Z,2.27
2018-09-27T06:35:56.661Z,2.73
2018-09-27T06:38:31.380Z,2.47
2018-09-27T06:41:05.952Z,2.50
2018-09-27T06:43:40.752Z,2.87
2018-09-27T06:46:15.614Z,2.93
2018-09-27T06:48:52.347Z,2.90
2018-09-27T06:51:27.502Z,2.70
2018-09-27T06:54:02.076Z,2.60
2018-09-27T06:56:36.574Z,2.60
2018-09-27T06:59:11.405Z,2.47
2018-09-27T07:01:46.104Z,2.50
2018-09-27T07:04:20.940Z,2.40
2018-09-27T07:06:55.652Z,2.17
2018-09-27T07:09:30.382Z,2.20
2018-09-27T07:12:05.210Z,2.60
2018-09-27T07:14:39.850Z,2.77
2018-09-27T07:17:14.425Z,2.63
2018-09-27T07:19:49.598Z,2.50
2018-09-27T07:22:24.084Z,2.63
2018-09-27T07:24:58.627Z,2.30
2018-09-27T07:27:33.444Z,3.23
2018-09-27T07:30:08.320Z,2.60
2018-09-27T07:32:43.272Z,2.80
2018-09-27T07:35:17.850Z,2.40
2018-09-27T07:37:52.875Z,2.60
2018-09-27T07:40:27.545Z,3.00
2018-09-27T07:43:02.057Z,2.90
2018-09-27T07:45:36.595Z,2.67
2018-09-27T07:48:11.345Z,2.90
2018-09-27T07:50:45.908Z,2.77
2018-09-27T07:53:20.684Z,2.73
2018-09-27T07:56:08.995Z,2.87
2018-09-27T07:58:53.896Z,3.23
2018-09-27T08:01:28.572Z,2.70
2018-09-27T08:07:03.930Z,3.10
2018-09-27T08:09:41.527Z,3.00
2018-09-27T08:12:16.140Z,3.63
2018-09-27T08:14:51.012Z,3.10
2018-09-27T08:17:25.554Z,2.97
2018-09-27T08:20:13.042Z,4.07
2018-09-27T08:22:56.065Z,4.67
2018-09-27T08:25:30.685Z,3.37
2018-09-27T08:28:05.425Z,4.10
2018-09-27T08:30:40.777Z,3.93
2018-09-27T08:33:15.410Z,3.93
2018-09-27T08:35:49.967Z,3.60
2018-09-27T08:38:24.763Z,3.83
2018-09-27T08:40:59.369Z,4.13
2018-09-27T08:43:33.993Z,3.87
2018-09-27T08:46:08.683Z,4.53
2018-09-27T08:48:43.196Z,4.70
2018-09-27T08:51:17.939Z,4.50
2018-09-27T08:53:52.535Z,4.30
2018-09-27T08:56:27.118Z,4.33
2018-09-27T08:59:01.822Z,4.57
2018-09-27T09:01:36.381Z,4.97
2018-09-27T09:04:10.851Z,5.53
2018-09-27T09:06:45.505Z,5.73
2018-09-27T09:09:20.288Z,4.43
2018-09-27T09:11:54.855Z,4.30
2018-09-27T09:14:29.411Z,5.17
2018-09-27T09:17:04.405Z,5.53
2018-09-27T09:19:39.249Z,4.50
2018-09-27T09:22:13.655Z,4.67
2018-09-27T09:24:48.360Z,5.30
2018-09-27T09:27:23.022Z,4.80
2018-09-27T09:29:57.636Z,4.80
2018-09-27T09:32:32.527Z,4.37
2018-09-27T09:35:07.264Z,4.87
2018-09-27T09:37:41.929Z,5.10
2018-09-27T09:40:16.600Z,5.37
2018-09-27T09:42:51.212Z,4.97
2018-09-27T09:45:25.970Z,4.60
2018-09-27T09:48:00.624Z,4.87
2018-09-27T09:50:35.303Z,4.57
2018-09-27T09:53:09.890Z,3.57
2018-09-27T09:55:44.608Z,3.80
2018-09-27T09:58:19.419Z,3.87
2018-09-27T10:00:54.331Z,3.97
2018-09-27T10:03:29.150Z,4.40
2018-09-27T10:06:03.853Z,3.83
2018-09-27T10:08:38.984Z,4.60
2018-09-27T10:11:13.625Z,3.90
2018-09-27T10:13:48.330Z,3.47
2018-09-27T10:16:23.207Z,3.93
2018-09-27T10:18:57.693Z,3.97
2018-09-27T10:21:32.262Z,4.17
2018-09-27T10:24:06.908Z,4.13
2018-09-27T10:26:41.689Z,3.33
2018-09-27T10:29:16.331Z,4.20
2018-09-27T10:31:51.141Z,4.27
2018-09-27T10:34:26.255Z,3.90
2018-09-27T10:37:00.872Z,3.87
2018-09-27T10:39:35.457Z,4.43
2018-09-27T10:42:09.989Z,4.33
2018-09-27T10:44:44.845Z,4.60
2018-09-27T10:47:19.519Z,4.80
2018-09-27T10:49:54.198Z,5.20
2018-09-27T10:52:29.148Z,4.07
2018-09-27T10:55:03.645Z,3.30
2018-09-27T10:57:38.476Z,2.73
2018-09-27T11:00:21.837Z,2.70
2018-09-27T11:02:56.453Z,2.40
2018-09-27T11:05:31.051Z,1.83
2018-09-27T11:08:05.912Z,1.80
2018-09-27T11:10:40.622Z,2.00
2018-09-27T11:13:15.070Z,1.70
2018-09-27T11:15:50.041Z,1.77
2018-09-27T11:18:24.862Z,1.57
2018-09-27T11:20:59.471Z,1.83
2018-09-27T11:23:34.640Z,1.50
2018-09-27T11:26:09.633Z,2.00
2018-09-27T11:28:49.491Z,1.30
2018-09-27T11:31:29.266Z,1.90
2018-09-27T11:34:03.933Z,2.13
2018-09-27T11:36:38.473Z,1.80
2018-09-27T11:39:12.941Z,1.47
2018-09-27T11:41:47.607Z,1.63
2018-09-27T11:44:22.036Z,1.50
2018-09-27T11:46:56.569Z,1.90
2018-09-27T11:49:31.275Z,1.30
2018-09-27T11:52:05.962Z,1.80
2018-09-27T11:54:40.585Z,2.47
2018-09-27T11:57:15.182Z,2.30
2018-09-27T11:59:49.876Z,2.17
2018-09-27T12:02:24.458Z,2.27
2018-09-27T12:04:59.105Z,2.33
2018-09-27T12:07:33.853Z,2.67
2018-09-27T12:10:08.345Z,2.47
2018-09-27T12:12:42.995Z,2.93
2018-09-27T12:15:17.816Z,2.77
2018-09-27T12:17:52.172Z,3.53
2018-09-27T12:20:26.513Z,3.80
2018-09-27T12:23:00.970Z,3.60
2018-09-27T12:25:35.401Z,3.73
2018-09-27T12:28:09.781Z,4.53
2018-09-27T12:30:44.327Z,3.53
2018-09-27T12:33:19.049Z,4.80
2018-09-27T12:36:02.019Z,4.57
2018-09-27T12:38:41.530Z,4.27
2018-09-27T12:41:16.068Z,4.60
2018-09-27T12:43:50.773Z,4.27
2018-09-27T12:46:25.597Z,4.40
2018-09-27T12:49:00.076Z,4.33
2018-09-27T12:51:34.703Z,3.90
2018-09-27T12:54:09.169Z,4.40
2018-09-27T12:56:43.780Z,4.63
2018-09-27T12:59:18.718Z,4.77
2018-09-27T13:01:53.468Z,4.47
2018-09-27T13:04:27.797Z,5.20
2018-09-27T13:07:02.355Z,5.33
2018-09-27T13:09:37.105Z,5.67
2018-09-27T13:12:11.872Z,5.73
2018-09-27T13:14:46.347Z,5.60
2018-09-27T13:17:21.018Z,5.90
2018-09-27T13:19:55.793Z,4.40
2018-09-27T13:22:30.832Z,4.27
2018-09-27T13:25:05.612Z,4.17
2018-09-27T13:27:40.064Z,4.13
2018-09-27T13:30:14.782Z,3.97
2018-09-27T13:32:49.285Z,3.60
2018-09-27T13:35:23.645Z,3.77
2018-09-27T13:37:58.253Z,3.77
2018-09-27T13:40:32.778Z,4.10
2018-09-27T13:43:07.306Z,3.27
2018-09-27T13:45:41.829Z,3.23
2018-09-27T13:48:16.408Z,2.87
2018-09-27T13:50:51.032Z,2.90
2018-09-27T13:53:25.541Z,2.73
2018-09-27T13:56:00.210Z,2.73
2018-09-27T13:58:34.746Z,3.63
2018-09-27T14:01:09.598Z,3.03
2018-09-27T14:03:43.933Z,3.17
2018-09-27T14:06:18.472Z,3.10
2018-09-27T14:08:53.028Z,3.30
2018-09-27T14:11:27.504Z,2.70
2018-09-27T14:14:02.094Z,3.00
2018-09-27T14:16:36.644Z,3.10
2018-09-27T14:19:11.276Z,2.43
2018-09-27T14:21:45.917Z,3.00
2018-09-27T14:24:20.428Z,2.73
2018-09-27T14:26:55.010Z,2.40
2018-09-27T14:29:29.642Z,2.80
2018-09-27T14:32:04.268Z,2.50
2018-09-27T14:34:38.833Z,1.77
2018-09-27T14:37:13.355Z,2.87
2018-09-27T14:39:47.926Z,2.30
2018-09-27T14:42:22.401Z,2.30
2018-09-27T14:44:57.226Z,2.50
2018-09-27T14:47:52.225Z,1.90
2018-09-27T14:50:31.885Z,1.73
2018-09-27T14:53:06.511Z,2.10
2018-09-27T14:55:41.229Z,1.80
2018-09-27T14:58:16.141Z,1.97
2018-09-27T15:00:50.503Z,2.40
2018-09-27T15:03:24.913Z,2.30
2018-09-27T15:05:59.653Z,2.30
2018-09-27T15:08:34.186Z,2.50
2018-09-27T15:11:08.616Z,2.23
2018-09-27T15:13:43.152Z,2.27
2018-09-27T15:16:17.918Z,2.63
2018-09-27T15:18:52.540Z,2.20
2018-09-27T15:21:27.009Z,2.07
2018-09-27T15:24:02.713Z,2.53
2018-09-27T15:26:37.239Z,2.40
2018-09-27T15:29:11.953Z,2.70
2018-09-27T15:31:46.424Z,2.80
2018-09-27T15:34:20.866Z,2.90
2018-09-27T15:36:55.226Z,3.10
2018-09-27T15:39:29.639Z,3.47
2018-09-27T15:42:04.384Z,3.60
2018-09-27T15:44:39.109Z,3.77
2018-09-27T15:47:13.837Z,4.00
2018-09-27T15:49:48.329Z,3.87
2018-09-27T15:52:22.828Z,3.70
2018-09-27T15:54:57.241Z,3.80
2018-09-27T15:57:31.697Z,4.20
2018-09-27T16:00:06.517Z,3.67
2018-09-27T16:02:41.044Z,3.90
2018-09-27T16:05:15.633Z,4.43
2018-09-27T16:07:50.231Z,4.47
2018-09-27T16:10:24.894Z,4.53
2018-09-27T16:12:59.310Z,4.47
2018-09-27T16:15:33.786Z,4.60
2018-09-27T16:18:08.396Z,4.30
2018-09-27T16:20:42.964Z,4.73
2018-09-27T16:23:17.976Z,4.70
2018-09-27T16:25:52.417Z,4.00
2018-09-27T16:28:26.881Z,4.43
2018-09-27T16:31:01.726Z,4.73
2018-09-27T16:33:36.667Z,4.40
2018-09-27T16:36:11.312Z,4.90
2018-09-27T16:38:47.857Z,4.60
2018-09-27T16:41:22.780Z,4.27
2018-09-27T16:43:57.459Z,4.80
2018-09-27T16:46:49.014Z,4.70
2018-09-27T16:49:23.645Z,4.97
2018-09-27T16:51:58.275Z,4.53
2018-09-27T16:54:33.030Z,4.37
2018-09-27T16:57:08.253Z,4.50
2018-09-27T16:59:43.100Z,4.63
2018-09-27T17:02:17.886Z,4.50
2018-09-27T17:04:52.652Z,4.40
2018-09-27T17:07:27.372Z,4.43
2018-09-27T17:10:01.999Z,3.90
2018-09-27T17:12:36.613Z,4.00
2018-09-27T17:15:11.074Z,3.80
2018-09-27T17:17:45.798Z,3.83
2018-09-27T17:20:20.609Z,3.50
2018-09-27T17:22:55.432Z,3.80
2018-09-27T17:25:29.973Z,3.20
2018-09-27T17:28:04.491Z,3.47
2018-09-27T17:30:39.297Z,3.30
2018-09-27T17:33:14.012Z,3.60
2018-09-27T17:35:48.641Z,3.73
2018-09-27T17:38:23.428Z,3.17
2018-09-27T17:40:57.991Z,3.70
2018-09-27T17:43:32.435Z,3.67
2018-09-27T17:46:07.017Z,4.27
2018-09-27T17:48:41.618Z,3.80
2018-09-27T17:51:16.179Z,3.73
2018-09-27T17:53:50.692Z,4.10
2018-09-27T17:56:25.142Z,3.90
2018-09-27T17:58:59.824Z,3.90
2018-09-27T18:01:34.406Z,3.30
2018-09-27T18:04:08.992Z,3.60
2018-09-27T18:06:43.640Z,3.57
2018-09-27T18:09:18.456Z,4.43
2018-09-27T18:11:53.126Z,3.87
2018-09-27T18:14:28.061Z,4.00
2018-09-27T18:17:03.804Z,4.50
2018-09-27T18:19:38.336Z,4.77
2018-09-27T18:22:12.942Z,4.30
2018-09-27T18:24:55.101Z,7.00
2018-09-27T18:27:30.434Z,8.13
2018-09-27T18:30:05.066Z,9.73
2018-09-27T18:32:40.066Z,10.17
2018-09-27T18:35:14.649Z,9.10
2018-09-27T18:37:49.445Z,8.07
2018-09-27T18:40:23.949Z,8.23
2018-09-27T18:42:58.676Z,7.57
2018-09-27T18:45:33.453Z,6.07
2018-09-27T18:48:08.021Z,6.00
2018-09-27T18:50:42.821Z,5.23
2018-09-27T18:53:17.632Z,5.27
2018-09-27T18:55:52.513Z,4.87
2018-09-27T18:58:27.037Z,4.70
2018-09-27T19:01:01.788Z,4.83
2018-09-27T19:03:36.485Z,5.23
2018-09-27T19:06:11.442Z,4.47
2018-09-27T19:08:46.081Z,5.10
2018-09-27T19:11:20.586Z,5.77
2018-09-27T19:13:55.282Z,5.03
2018-09-27T19:16:29.896Z,5.40
2018-09-27T19:19:04.604Z,5.83
2018-09-27T19:21:39.457Z,5.93
2018-09-27T19:24:14.085Z,5.50
2018-09-27T19:26:48.766Z,5.63
2018-09-27T19:29:23.518Z,6.93
2018-09-27T19:31:58.376Z,7.20
2018-09-27T19:34:32.929Z,9.63
2018-09-27T19:37:07.388Z,10.70
2018-09-27T19:39:42.073Z,9.33
2018-09-27T19:42:16.672Z,8.37
2018-09-27T19:44:51.422Z,8.47
2018-09-27T19:47:25.946Z,8.17
2018-09-27T19:50:00.615Z,8.70
2018-09-27T19:52:35.565Z,9.07
2018-09-27T19:55:10.293Z,8.70
2018-09-27T19:57:44.955Z,8.10
2018-09-27T20:00:19.600Z,7.73
2018-09-27T20:02:54.276Z,8.67
2018-09-27T20:05:28.892Z,9.30
2018-09-27T20:08:03.674Z,9.27
2018-09-27T20:10:38.556Z,8.77
2018-09-27T20:13:13.205Z,8.17
2018-09-27T20:15:48.022Z,8.70
2018-09-27T20:18:22.698Z,9.30
2018-09-27T20:20:57.252Z,8.97
2018-09-27T20:23:31.952Z,10.30
2018-09-27T20:26:06.984Z,9.23
2018-09-27T20:28:41.554Z,8.50
2018-09-27T20:31:16.033Z,8.33
2018-09-27T20:33:50.766Z,7.17
2018-09-27T20:36:25.348Z,7.77
2018-09-27T20:38:59.983Z,9.60
2018-09-27T20:41:34.518Z,9.10
2018-09-27T20:44:09.009Z,7.80
2018-09-27T20:46:43.810Z,6.97
2018-09-27T20:49:18.377Z,7.10
2018-09-27T20:51:53.272Z,6.50
2018-09-27T20:54:28.290Z,6.00
2018-09-27T20:57:02.856Z,8.57
2018-09-27T20:59:37.352Z,9.03
2018-09-27T21:02:11.968Z,6.87
2018-09-27T21:04:46.520Z,7.47
2018-09-27T21:07:21.257Z,7.83
2018-09-27T21:09:55.999Z,6.97
2018-09-27T21:12:30.911Z,6.23
2018-09-27T21:15:06.241Z,7.57
2018-09-27T21:17:40.660Z,6.20
2018-09-27T21:20:14.985Z,5.90
2018-09-27T21:22:49.455Z,6.30
2018-09-27T21:25:24.026Z,6.30
2018-09-27T21:27:58.491Z,6.47
2018-09-27T21:30:32.965Z,7.00
2018-09-27T21:33:08.490Z,6.63
2018-09-27T21:35:43.061Z,6.13
2018-09-27T21:38:18.274Z,7.00
2018-09-27T21:40:53.121Z,6.70
2018-09-27T21:43:27.618Z,7.20
2018-09-27T21:46:02.373Z,6.87
2018-09-27T21:48:36.816Z,7.37
2018-09-27T21:51:11.608Z,8.07
2018-09-27T21:53:46.073Z,7.67
2018-09-27T21:56:20.737Z,6.70
2018-09-27T21:58:55.493Z,7.13
2018-09-27T22:01:30.237Z,7.03
2018-09-27T22:04:23.091Z,7.33
2018-09-27T22:07:18.044Z,6.87
2018-09-27T22:09:53.100Z,6.90
2018-09-27T22:12:27.587Z,7.40
2018-09-27T22:15:02.477Z,7.37
2018-09-27T22:17:37.012Z,7.00
2018-09-27T22:20:11.703Z,7.43
2018-09-27T22:22:46.377Z,8.43
2018-09-27T22:25:20.852Z,8.10
2018-09-27T22:27:55.469Z,7.97
2018-09-27T22:30:30.021Z,8.97
2018-09-27T22:33:04.508Z,8.13
2018-09-27T22:35:39.788Z,8.30
2018-09-27T22:38:14.336Z,8.77
2018-09-27T22:40:48.808Z,9.20
2018-09-27T22:43:23.615Z,9.83
2018-09-27T22:45:58.108Z,9.63
2018-09-27T22:48:32.669Z,8.73
2018-09-27T22:51:07.251Z,10.97
2018-09-27T22:53:41.849Z,10.07
2018-09-27T22:56:16.425Z,11.30
2018-09-27T22:58:50.950Z,11.67
2018-09-27T23:01:25.307Z,10.77
2018-09-27T23:03:59.716Z,11.43
2018-09-27T23:06:34.176Z,10.57
2018-09-27T23:09:08.993Z,11.37
2018-09-27T23:11:43.633Z,11.07
2018-09-27T23:14:34.197Z,11.60
2018-09-27T23:17:08.533Z,10.93
2018-09-27T23:19:42.873Z,11.57
2018-09-27T23:22:17.344Z,11.13
2018-09-27T23:24:51.838Z,11.80
2018-09-27T23:27:26.240Z,12.73
2018-09-27T23:30:00.892Z,11.27
2018-09-27T23:32:35.404Z,13.00
2018-09-27T23:35:09.900Z,12.00
2018-09-27T23:37:44.336Z,12.33
2018-09-27T23:40:18.868Z,13.00
2018-09-27T23:42:53.393Z,13.37
2018-09-27T23:45:27.834Z,13.23
2018-09-27T23:48:02.472Z,13.37
2018-09-27T23:50:37.052Z,13.47
2018-09-27T23:53:11.525Z,13.87
2018-09-27T23:55:46.069Z,13.90
2018-09-27T23:58:20.572Z,15.97
